Mekhanik Pogodin — UBFH6 — position and weather

sailwx.info

Track history (hours):
 
Tides and Currents Weather Stations Pressure Air Temp Water Temp Dewpoint Dewpoint Depression Visibility Wind Speed Wind Dir Waves Ship Positions

Mekhanik Pogodin

Last reported at 2017-Dec-09 00:34 UTC. Time now 2017-Dec-11 07:55 UTC.
Position N 45°13' E 036°28'.

Length 141 m; draft 3.8 m.

Type: Ship (hazmat cat C). MMSI: 273354720.

Date/timePositionNaut miles runAvg speedWind from/ knotsBaromVisibWave heightAir tempDewpointWater temp
2017-Dec-09 00:34N 45°13' E 036°28'0 8.1
2017-Dec-09 00:30N 45°13' E 036°28'4 7.6
2017-Dec-09 00:00N 45°17' E 036°28'4 7.2
2017-Dec-08 23:30N 45°19' E 036°32'4 8.3
2017-Dec-08 23:01N 45°21' E 036°38'3 6.2
2017-Dec-08 22:30N 45°23' E 036°40'3 6.8
2017-Dec-08 22:00N 45°27' E 036°40'2 4.0
2017-Dec-08 21:30N 45°28' E 036°39'0 0.0
2017-Dec-08 20:58N 45°28' E 036°38'0 0.0
2017-Dec-08 20:28N 45°28' E 036°38'0 0.0
2017-Dec-08 19:58N 45°28' E 036°39'0 0.1
2017-Dec-08 19:28N 45°28' E 036°38'0 0.1
2017-Dec-08 18:52N 45°28' E 036°39'0 0.1
2017-Dec-08 18:28N 45°28' E 036°39'0 0.1
2017-Dec-08 17:46N 45°28' E 036°39'0 0.0
2017-Dec-08 17:28N 45°28' E 036°39'0 0.0
2017-Dec-08 16:34N 45°28' E 036°39'0 0.0
2017-Dec-08 16:28N 45°28' E 036°39'0 0.0
2017-Dec-08 15:34N 45°28' E 036°39'0 0.0
2017-Dec-08 15:28N 45°28' E 036°39'0 0.1
2017-Dec-08 15:00N 45°28' E 036°39'2 4.2
2017-Dec-08 14:30N 45°29' E 036°41'  
2017-Dec-04 10:30N 45°29' E 036°44'4 9.1
2017-Dec-04 10:00N 45°25' E 036°41'4 8.5
2017-Dec-04 09:30N 45°21' E 036°38'611.1
2017-Dec-04 09:00N 45°19' E 036°31'3 6.8
2017-Dec-04 08:30N 45°16' E 036°29'2 4.7
2017-Dec-04 07:59N 45°14' E 036°29'2 1.0
2017-Dec-04 05:55N 45°12' E 036°30'1 1.4
2017-Dec-04 05:25N 45°11' E 036°30'  
Track history (hours):
 
Tides and Currents Weather Stations Pressure Air Temp Water Temp Dewpoint Dewpoint Depression Visibility Wind Speed Wind Dir Waves Ship Positions

Mekhanik Pogodin

Last reported at 2017-Dec-09 00:34 UTC. Time now 2017-Dec-11 07:55 UTC.
Position N 45°13' E 036°28'.

Length 141 m; draft 3.8 m.

Type: Ship (hazmat cat C). MMSI: 273354720.

Date/timePositionNaut miles runAvg speedWind from/ knotsBaromVisibWave heightAir tempDewpointWater temp
2017-Dec-09 00:34N 45°13' E 036°28'0 8.1
2017-Dec-09 00:30N 45°13' E 036°28'4 7.6
2017-Dec-09 00:00N 45°17' E 036°28'4 7.2
2017-Dec-08 23:30N 45°19' E 036°32'4 8.3
2017-Dec-08 23:01N 45°21' E 036°38'3 6.2
2017-Dec-08 22:30N 45°23' E 036°40'3 6.8
2017-Dec-08 22:00N 45°27' E 036°40'2 4.0
2017-Dec-08 21:30N 45°28' E 036°39'0 0.0
2017-Dec-08 20:58N 45°28' E 036°38'0 0.0
2017-Dec-08 20:28N 45°28' E 036°38'0 0.0
2017-Dec-08 19:58N 45°28' E 036°39'0 0.1
2017-Dec-08 19:28N 45°28' E 036°38'0 0.1
2017-Dec-08 18:52N 45°28' E 036°39'0 0.1
2017-Dec-08 18:28N 45°28' E 036°39'0 0.1
2017-Dec-08 17:46N 45°28' E 036°39'0 0.0
2017-Dec-08 17:28N 45°28' E 036°39'0 0.0
2017-Dec-08 16:34N 45°28' E 036°39'0 0.0
2017-Dec-08 16:28N 45°28' E 036°39'0 0.0
2017-Dec-08 15:34N 45°28' E 036°39'0 0.0
2017-Dec-08 15:28N 45°28' E 036°39'0 0.1
2017-Dec-08 15:00N 45°28' E 036°39'2 4.2
2017-Dec-08 14:30N 45°29' E 036°41'  
2017-Dec-04 10:30N 45°29' E 036°44'4 9.1
2017-Dec-04 10:00N 45°25' E 036°41'4 8.5
2017-Dec-04 09:30N 45°21' E 036°38'611.1
2017-Dec-04 09:00N 45°19' E 036°31'3 6.8
2017-Dec-04 08:30N 45°16' E 036°29'2 4.7
2017-Dec-04 07:59N 45°14' E 036°29'2 1.0
2017-Dec-04 05:55N 45°12' E 036°30'1 1.4
2017-Dec-04 05:25N 45°11' E 036°30'  

Dump ship's entire track history